| time (UTC) | temp C | wind direction | speed KPH | gust KPH | rain 1hr cm | rain 24hr cm | rain mn cm | humidity % | barometer mb |
| 20260509131009 | 16 | 162 | 0.0 | 14.5 | 0.00 | 0.00 | 0.00 | 1 | 1013.5 |
| 20260509130505 | 16 | 185 | 1.6 | 4.8 | 0.00 | 0.00 | 0.00 | 1 | 1013.5 |
| 20260509130007 | 16 | 181 | 1.6 | 4.8 | 0.00 | 0.00 | 0.00 | 1 | 1013.5 |
| 20260509125504 | 16 | 170 | 0.0 | 4.8 | 0.00 | 0.00 | 0.00 | 1 | 1013.4 |
| 20260509125059 | 15 | 155 | 1.6 | 9.7 | 0.00 | 0.00 | 0.00 | 1 | 1013.4 |
| 20260509124602 | 15 | 131 | 1.6 | 9.7 | 0.00 | 0.00 | 0.00 | 1 | 1013.4 |
| 20260509124057 | 15 | 171 | 0.0 | 3.2 | 0.00 | 0.00 | 0.00 | 1 | 1013.5 |
| 20260509123555 | 15 | 171 | 0.0 | 6.4 | 0.00 | 0.00 | 0.00 | 1 | 1013.5 |
| 20260509123055 | 14 | 44 | 1.6 | 9.7 | 0.00 | 0.00 | 0.00 | 1 | 1013.5 |
| 20260509122553 | 13 | 148 | 0.0 | 4.8 | 0.00 | 0.00 | 0.00 | 1 | 1013.5 |
| 20260509122050 | 13 | 148 | 0.0 | 4.8 | 0.00 | 0.00 | 0.00 | 1 | 1013.5 |
| 20260509121550 | 13 | 128 | 0.0 | 3.2 | 0.00 | 0.00 | 0.00 | 1 | 1013.6 |
| 20260509121050 | 13 | 128 | 0.0 | 3.2 | 0.00 | 0.00 | 0.00 | 1 | 1013.7 |
| 20260509120547 | 12 | 113 | 0.0 | 3.2 | 0.00 | 0.00 | 0.00 | 1 | 1013.8 |
| 20260509120052 | 12 | 116 | 1.6 | 4.8 | 0.00 | 0.00 | 0.00 | 1 | 1013.7 |
| 20260509115543 | 12 | 125 | 1.6 | 4.8 | 0.00 | 0.00 | 0.00 | 1 | 1013.5 |
| 20260509115046 | 12 | 135 | 1.6 | 4.8 | 0.00 | 0.00 | 0.00 | 1 | 1013.5 |
| 20260509114540 | 11 | 121 | 1.6 | 4.8 | 0.00 | 0.00 | 0.00 | 1 | 1013.4 |
| 20260509114039 | 11 | 117 | 1.6 | 4.8 | 0.00 | 0.00 | 0.00 | 1 | 1013.4 |
| 20260509113537 | 11 | 144 | 0.0 | 3.2 | 0.00 | 0.00 | 0.00 | 1 | 1013.3 |
| 20260509113037 | 11 | 144 | 0.0 | 3.2 | 0.00 | 0.00 | 0.00 | 1 | 1013.4 |
| 20260509112535 | 11 | 144 | 0.0 | 3.2 | 0.00 | 0.00 | 0.00 | 1 | 1013.5 |
| 20260509112033 | 10 | 144 | 0.0 | 0.0 | 0.00 | 0.00 | 0.00 | 1 | 1013.4 |
| 20260509111532 | 10 | 144 | 0.0 | 0.0 | 0.00 | 0.00 | 0.00 | 1 | 1013.3 |
| 20260509111031 | 10 | 144 | 0.0 | 0.0 | 0.00 | 0.00 | 0.00 | 1 | 1013.3 |
| 20260509110528 | 10 | 144 | 0.0 | 0.0 | 0.00 | 0.00 | 0.00 | 1 | 1013.3 |
| 20260509110030 | 10 | 144 | 0.0 | 0.0 | 0.00 | 0.00 | 0.00 | 1 | 1013.4 |
| 20260509105528 | 10 | 144 | 0.0 | 0.0 | 0.00 | 0.00 | 0.00 | 1 | 1013.3 |
| 20260509105026 | 10 | 144 | 0.0 | 0.0 | 0.00 | 0.00 | 0.00 | 1 | 1013.4 |
| 20260509104534 | 10 | 144 | 0.0 | 0.0 | 0.00 | 0.00 | 0.00 | 1 | 1013.3 |
| 20260509104021 | 10 | 144 | 0.0 | 0.0 | 0.00 | 0.00 | 0.00 | 1 | 1013.4 |
| 20260509103519 | 10 | 144 | 0.0 | 0.0 | 0.00 | 0.00 | 0.00 | 1 | 1013.4 |
| 20260509103018 | 10 | 144 | 0.0 | 0.0 | 0.00 | 0.00 | 0.00 | 1 | 1013.4 |
| 20260509102516 | 10 | 144 | 0.0 | 0.0 | 0.00 | 0.00 | 0.00 | 1 | 1013.3 |
| 20260509102015 | 10 | 144 | 0.0 | 0.0 | 0.00 | 0.00 | 0.00 | 1 | 1013.3 |
| 20260509101515 | 10 | 144 | 0.0 | 0.0 | 0.00 | 0.00 | 0.00 | 1 | 1013.2 |
| 20260509101017 | 10 | 144 | 0.0 | 0.0 | 0.00 | 0.00 | 0.00 | 1 | 1013.3 |
| 20260509100511 | 10 | 144 | 0.0 | 0.0 | 0.00 | 0.00 | 0.00 | 1 | 1013.3 |
| 20260509100010 | 10 | 144 | 0.0 | 0.0 | 0.00 | 0.00 | 0.00 | 1 | 1013.3 |
| 20260509095508 | 10 | 144 | 0.0 | 0.0 | 0.00 | 0.00 | 0.00 | 1 | 1013.2 |
| 20260509095007 | 10 | 144 | 0.0 | 0.0 | 0.00 | 0.00 | 0.00 | 1 | 1013.2 |
| 20260509094504 | 11 | 144 | 0.0 | 0.0 | 0.00 | 0.00 | 0.00 | 1 | 1013.3 |
| 20260509094004 | 11 | 144 | 0.0 | 0.0 | 0.00 | 0.00 | 0.00 | 1 | 1013.3 |
| 20260509093503 | 11 | 144 | 0.0 | 0.0 | 0.00 | 0.00 | 0.00 | 1 | 1013.3 |
| 20260509092559 | 11 | 144 | 0.0 | 0.0 | 0.00 | 0.00 | 0.00 | 1 | 1013.3 |
| 20260509092059 | 11 | 144 | 0.0 | 0.0 | 0.00 | 0.00 | 0.00 | 1 | 1013.4 |
| 20260509091557 | 11 | 144 | 0.0 | 0.0 | 0.00 | 0.00 | 0.00 | 1 | 1013.5 |
| 20260509091055 | 11 | 144 | 0.0 | 0.0 | 0.00 | 0.00 | 0.00 | 1 | 1013.5 |
| 20260509090554 | 11 | 144 | 0.0 | 0.0 | 0.00 | 0.00 | 0.00 | 1 | 1013.4 |
| 20260509090052 | 11 | 144 | 0.0 | 0.0 | 0.00 | 0.00 | 0.00 | 1 | 1013.5 |
| 20260509085550 | 11 | 144 | 0.0 | 0.0 | 0.00 | 0.00 | 0.00 | 1 | 1013.3 |
| 20260509085050 | 11 | 144 | 0.0 | 1.6 | 0.00 | 0.00 | 0.00 | 1 | 1013.3 |
| 20260509084554 | 11 | 144 | 0.0 | 3.2 | 0.00 | 0.00 | 0.00 | 1 | 1013.2 |
| 20260509084046 | 11 | 144 | 0.0 | 3.2 | 0.00 | 0.00 | 0.00 | 1 | 1013.1 |
| 20260509083544 | 11 | 144 | 0.0 | 3.2 | 0.00 | 0.00 | 0.00 | 1 | 1013.2 |
| 20260509083042 | 11 | 144 | 0.0 | 3.2 | 0.00 | 0.00 | 0.00 | 1 | 1013.2 |
| 20260509082541 | 12 | 157 | 0.0 | 0.0 | 0.00 | 0.00 | 0.00 | 1 | 1013.3 |
| 20260509082043 | 12 | 157 | 0.0 | 0.0 | 0.00 | 0.00 | 0.00 | 1 | 1013.2 |
| 20260509081542 | 12 | 157 | 0.0 | 0.0 | 0.00 | 0.00 | 0.00 | 1 | 1013.1 |
| 20260509081036 | 12 | 157 | 0.0 | 0.0 | 0.00 | 0.00 | 0.00 | 1 | 1013.1 |
| 20260509080535 | 12 | 157 | 0.0 | 0.0 | 0.00 | 0.00 | 0.00 | 1 | 1013.2 |
| 20260509080048 | 12 | 157 | 0.0 | 0.0 | 0.00 | 0.00 | 0.00 | 1 | 1013.2 |
| 20260509075534 | 12 | 157 | 0.0 | 0.0 | 0.00 | 0.00 | 0.00 | 1 | 1013.3 |
| 20260509075033 | 12 | 157 | 0.0 | 0.0 | 0.00 | 0.00 | 0.00 | 1 | 1013.3 |
| 20260509074530 | 12 | 157 | 0.0 | 0.0 | 0.00 | 0.00 | 0.00 | 1 | 1013.4 |
| 20260509074028 | 12 | 157 | 0.0 | 0.0 | 0.00 | 0.00 | 0.00 | 1 | 1013.5 |
| 20260509073530 | 12 | 157 | 0.0 | 0.0 | 0.00 | 0.00 | 0.00 | 1 | 1013.5 |
| 20260509073028 | 12 | 157 | 0.0 | 0.0 | 0.00 | 0.00 | 0.00 | 1 | 1013.5 |
| 20260509072524 | 12 | 157 | 0.0 | 0.0 | 0.00 | 0.00 | 0.00 | 1 | 1013.4 |
| 20260509072022 | 12 | 157 | 0.0 | 0.0 | 0.00 | 0.00 | 0.00 | 1 | 1013.2 |
| 20260509071521 | 12 | 157 | 0.0 | 0.0 | 0.00 | 0.00 | 0.00 | 1 | 1013.3 |
| 20260509071020 | 12 | 157 | 0.0 | 0.0 | 0.00 | 0.00 | 0.00 | 1 | 1013.3 |
| 20260509070519 | 12 | 157 | 0.0 | 0.0 | 0.00 | 0.00 | 0.00 | 1 | 1013.5 |
| 20260509070017 | 12 | 157 | 0.0 | 3.2 | 0.00 | 0.00 | 0.00 | 1 | 1013.5 |
| 20260509065515 | 12 | 157 | 0.0 | 4.8 | 0.00 | 0.00 | 0.00 | 1 | 1013.5 |
| 20260509065014 | 12 | 157 | 0.0 | 4.8 | 0.00 | 0.00 | 0.00 | 1 | 1013.7 |
| 20260509064512 | 12 | 150 | 0.0 | 3.2 | 0.00 | 0.00 | 0.00 | 1 | 1013.9 |
| 20260509064013 | 12 | 153 | 0.0 | 0.0 | 0.00 | 0.00 | 0.00 | 1 | 1014.0 |
| 20260509063509 | 12 | 153 | 0.0 | 0.0 | 0.00 | 0.00 | 0.00 | 1 | 1014.1 |
| 20260509063012 | 12 | 153 | 0.0 | 3.2 | 0.00 | 0.00 | 0.00 | 1 | 1014.2 |
| 20260509062508 | 12 | 153 | 0.0 | 3.2 | 0.00 | 0.00 | 0.00 | 3 | 1014.3 |
| 20260509062005 | 12 | 153 | 1.6 | 4.8 | 0.00 | 0.00 | 0.00 | 9 | 1014.5 |
| 20260509061513 | 12 | 155 | 0.0 | 4.8 | 0.00 | 0.00 | 0.00 | 13 | 1014.6 |
| 20260509061005 | 12 | 155 | 0.0 | 3.2 | 0.00 | 0.00 | 0.00 | 17 | 1014.6 |
| 20260509060502 | 13 | 161 | 0.0 | 3.2 | 0.00 | 0.00 | 0.00 | 21 | 1014.6 |
| 20260509060001 | 13 | 161 | 1.6 | 4.8 | 0.00 | 0.00 | 0.00 | 25 | 1014.6 |
| 20260509055600 | 13 | 161 | 1.6 | 4.8 | 0.00 | 0.00 | 0.00 | 27 | 1014.6 |
| 20260509055103 | 13 | 157 | 0.0 | 3.2 | 0.00 | 0.00 | 0.00 | 31 | 1014.5 |
| 20260509054604 | 13 | 157 | 0.0 | 8.0 | 0.00 | 0.00 | 0.00 | 33 | 1014.5 |
| 20260509054101 | 13 | 157 | 0.0 | 8.0 | 0.00 | 0.00 | 0.00 | 36 | 1014.6 |
| 20260509053556 | 13 | 157 | 1.6 | 4.8 | 0.00 | 0.00 | 0.00 | 38 | 1014.6 |
| 20260509053103 | 13 | 155 | 0.0 | 4.8 | 0.00 | 0.00 | 0.00 | 40 | 1014.6 |
| 20260509052554 | 13 | 165 | 0.0 | 11.3 | 0.00 | 0.00 | 0.00 | 42 | 1014.3 |
| 20260509052054 | 13 | 165 | 1.6 | 11.3 | 0.00 | 0.00 | 0.00 | 44 | 1014.5 |
| 20260509051601 | 13 | 171 | 0.0 | 1.6 | 0.00 | 0.00 | 0.00 | 45 | 1014.4 |
| 20260509051053 | 13 | 171 | 0.0 | 6.4 | 0.00 | 0.00 | 0.00 | 47 | 1014.4 |
| 20260509050555 | 13 | 171 | 1.6 | 8.0 | 0.00 | 0.00 | 0.00 | 47 | 1014.3 |
| 20260509050054 | 13 | 164 | 0.0 | 3.2 | 0.00 | 0.00 | 0.00 | 49 | 1014.4 |
| 20260509045551 | 13 | 115 | 0.0 | 0.0 | 0.00 | 0.00 | 0.00 | 50 | 1014.3 |
| 20260509045051 | 13 | 115 | 0.0 | 0.0 | 0.00 | 0.00 | 0.00 | 51 | 1014.3 |
| 20260509044549 | 13 | 115 | 0.0 | 0.0 | 0.00 | 0.00 | 0.00 | 52 | 1014.2 |
| 20260509044047 | 13 | 115 | 0.0 | 0.0 | 0.00 | 0.00 | 0.00 | 52 | 1014.2 |
| 20260509043548 | 13 | 115 | 0.0 | 0.0 | 0.00 | 0.00 | 0.00 | 53 | 1014.1 |
| 20260509043047 | 13 | 115 | 0.0 | 0.0 | 0.00 | 0.00 | 0.00 | 54 | 1014.1 |
| 20260509042546 | 13 | 115 | 0.0 | 0.0 | 0.00 | 0.00 | 0.00 | 54 | 1014.2 |
| 20260509042046 | 13 | 115 | 0.0 | 0.0 | 0.00 | 0.00 | 0.00 | 55 | 1014.1 |
| 20260509041546 | 13 | 115 | 0.0 | 0.0 | 0.00 | 0.00 | 0.00 | 55 | 1014.1 |
| 20260509041046 | 13 | 115 | 0.0 | 1.6 | 0.00 | 0.00 | 0.00 | 55 | 1014.2 |
| 20260509040546 | 13 | 115 | 0.0 | 3.2 | 0.00 | 0.00 | 0.00 | 55 | 1014.1 |
| 20260509040044 | 13 | 115 | 0.0 | 3.2 | 0.00 | 0.00 | 0.00 | 55 | 1014.1 |
| 20260509035544 | 13 | 107 | 0.0 | 0.0 | 0.00 | 0.00 | 0.00 | 55 | 1014.3 |
| 20260509035041 | 13 | 107 | 0.0 | 0.0 | 0.00 | 0.00 | 0.00 | 54 | 1014.2 |
| 20260509034544 | 13 | 107 | 0.0 | 0.0 | 0.00 | 0.00 | 0.00 | 54 | 1014.2 |
| 20260509034037 | 13 | 107 | 0.0 | 0.0 | 0.00 | 0.00 | 0.00 | 53 | 1014.3 |
| 20260509033536 | 13 | 107 | 0.0 | 0.0 | 0.00 | 0.00 | 0.00 | 52 | 1014.3 |
| 20260509033035 | 13 | 107 | 0.0 | 0.0 | 0.00 | 0.00 | 0.00 | 53 | 1014.4 |
| 20260509032534 | 13 | 107 | 0.0 | 0.0 | 0.00 | 0.00 | 0.00 | 54 | 1014.4 |
| 20260509032032 | 13 | 107 | 0.0 | 0.0 | 0.00 | 0.00 | 0.00 | 55 | 1014.4 |
| 20260509031533 | 13 | 107 | 0.0 | 0.0 | 0.00 | 0.00 | 0.00 | 56 | 1014.4 |
| 20260509031029 | 13 | 107 | 0.0 | 3.2 | 0.00 | 0.00 | 0.00 | 56 | 1014.4 |
| 20260509030528 | 13 | 128 | 0.0 | 3.2 | 0.00 | 0.00 | 0.00 | 56 | 1014.3 |
| 20260509030027 | 13 | 192 | 0.0 | 1.6 | 0.00 | 0.00 | 0.00 | 55 | 1014.2 |
| 20260509025526 | 13 | 192 | 0.0 | 1.6 | 0.00 | 0.00 | 0.00 | 56 | 1014.3 |
| 20260509025024 | 13 | 192 | 0.0 | 14.5 | 0.00 | 0.00 | 0.00 | 56 | 1014.4 |
| 20260509024522 | 13 | 153 | 0.0 | 14.5 | 0.00 | 0.00 | 0.00 | 56 | 1014.3 |
| 20260509024021 | 13 | 111 | 0.0 | 3.2 | 0.00 | 0.00 | 0.00 | 56 | 1014.5 |
| 20260509023519 | 13 | 111 | 0.0 | 3.2 | 0.00 | 0.00 | 0.00 | 56 | 1014.5 |
| 20260509023018 | 13 | 296 | 0.0 | 0.0 | 0.00 | 0.00 | 0.00 | 56 | 1014.4 |
| 20260509022517 | 13 | 296 | 0.0 | 0.0 | 0.00 | 0.00 | 0.00 | 56 | 1014.4 |
| 20260509022015 | 13 | 296 | 0.0 | 0.0 | 0.00 | 0.00 | 0.00 | 56 | 1014.4 |
| 20260509021514 | 13 | 292 | 0.0 | 0.0 | 0.00 | 0.00 | 0.00 | 56 | 1014.4 |
| 20260509021016 | 14 | 292 | 0.0 | 0.0 | 0.00 | 0.00 | 0.00 | 56 | 1014.4 |
| 20260509020510 | 14 | 292 | 0.0 | 0.0 | 0.00 | 0.00 | 0.00 | 56 | 1014.5 |
| 20260509020012 | 14 | 292 | 0.0 | 0.0 | 0.00 | 0.00 | 0.00 | 56 | 1014.5 |
| 20260509015508 | 14 | 292 | 0.0 | 0.0 | 0.00 | 0.00 | 0.00 | 55 | 1014.4 |
| 20260509015006 | 14 | 292 | 0.0 | 0.0 | 0.00 | 0.00 | 0.00 | 55 | 1014.1 |
| 20260509014511 | 15 | 292 | 0.0 | 0.0 | 0.00 | 0.00 | 0.00 | 55 | 1014.4 |
| 20260509014003 | 15 | 292 | 0.0 | 0.0 | 0.00 | 0.00 | 0.00 | 54 | 1014.2 |
| 20260509013502 | 15 | 292 | 0.0 | 0.0 | 0.00 | 0.00 | 0.00 | 54 | 1014.2 |
| 20260509013113 | 15 | 292 | 0.0 | 0.0 | 0.00 | 0.00 | 0.00 | 54 | 1014.2 |
| 20260509012559 | 15 | 292 | 0.0 | 0.0 | 0.00 | 0.00 | 0.00 | 55 | 1014.1 |
| 20260509012058 | 15 | 292 | 0.0 | 0.0 | 0.00 | 0.00 | 0.00 | 54 | 1014.2 |
| 20260509011557 | 15 | 292 | 0.0 | 0.0 | 0.00 | 0.00 | 0.00 | 54 | 1014.0 |
| 20260509011057 | 16 | 292 | 0.0 | 0.0 | 0.00 | 0.00 | 0.00 | 53 | 1014.1 |
| 20260509010556 | 16 | 292 | 0.0 | 0.0 | 0.00 | 0.00 | 0.00 | 53 | 1014.1 |
| 20260509010052 | 16 | 292 | 0.0 | 0.0 | 0.00 | 0.00 | 0.00 | 51 | 1014.1 |
| 20260509005551 | 16 | 292 | 0.0 | 0.0 | 0.00 | 0.00 | 0.00 | 51 | 1013.9 |
| 20260509005049 | 16 | 292 | 0.0 | 0.0 | 0.00 | 0.00 | 0.00 | 51 | 1014.0 |
| 20260509004548 | 17 | 292 | 0.0 | 0.0 | 0.00 | 0.00 | 0.00 | 49 | 1014.1 |
| 20260509004046 | 17 | 292 | 0.0 | 0.0 | 0.00 | 0.00 | 0.00 | 48 | 1014.1 |
| 20260509003545 | 17 | 292 | 0.0 | 0.0 | 0.00 | 0.00 | 0.00 | 50 | 1014.1 |
| 20260509003045 | 17 | 292 | 0.0 | 0.0 | 0.00 | 0.00 | 0.00 | 49 | 1014.1 |
| 20260509002542 | 17 | 292 | 0.0 | 0.0 | 0.00 | 0.00 | 0.00 | 48 | 1014.0 |
| 20260509002040 | 18 | 292 | 0.0 | 0.0 | 0.00 | 0.00 | 0.00 | 46 | 1013.9 |
| 20260509001539 | 18 | 292 | 0.0 | 0.0 | 0.00 | 0.00 | 0.00 | 46 | 1014.0 |
| 20260509001038 | 18 | 292 | 0.0 | 0.0 | 0.00 | 0.00 | 0.00 | 45 | 1013.9 |
| 20260509000539 | 18 | 292 | 0.0 | 3.2 | 0.00 | 0.00 | 0.00 | 45 | 1013.9 |
| 20260509000035 | 18 | 292 | 0.0 | 3.2 | 0.00 | 0.00 | 0.00 | 42 | 1013.9 |
| 20260508235534 | 18 | 321 | 0.0 | 0.0 | 0.00 | 0.00 | 0.00 | 41 | 1013.7 |
| 20260508235033 | 18 | 323 | 0.0 | 0.0 | 0.00 | 0.00 | 0.00 | 43 | 1013.7 |
| 20260508234534 | 18 | 323 | 0.0 | 4.8 | 0.00 | 0.00 | 0.00 | 43 | 1013.7 |
| 20260508234028 | 19 | 323 | 0.0 | 4.8 | 0.00 | 0.00 | 0.00 | 43 | 1013.7 |
| 20260508233527 | 19 | 160 | 0.0 | 9.7 | 0.00 | 0.00 | 0.00 | 43 | 1013.7 |
| 20260508233033 | 19 | 160 | 1.6 | 9.7 | 0.00 | 0.00 | 0.00 | 40 | 1013.6 |
| 20260508232524 | 19 | 126 | 0.0 | 4.8 | 0.00 | 0.00 | 0.00 | 40 | 1013.5 |
| 20260508232023 | 19 | 123 | 1.6 | 8.0 | 0.00 | 0.00 | 0.00 | 39 | 1013.5 |
| 20260508231524 | 19 | 144 | 0.0 | 8.0 | 0.00 | 0.00 | 0.00 | 39 | 1013.4 |
| 20260508231021 | 19 | 153 | 0.0 | 0.0 | 0.00 | 0.00 | 0.00 | 39 | 1013.3 |
| 20260508230518 | 20 | 153 | 0.0 | 0.0 | 0.00 | 0.00 | 0.00 | 39 | 1013.4 |
| 20260508230017 | 20 | 153 | 0.0 | 4.8 | 0.00 | 0.00 | 0.00 | 38 | 1013.3 |
| 20260508225516 | 20 | 153 | 0.0 | 4.8 | 0.00 | 0.00 | 0.00 | 38 | 1013.4 |
| 20260508225015 | 20 | 153 | 1.6 | 8.0 | 0.00 | 0.00 | 0.00 | 38 | 1013.4 |
| 20260508224513 | 20 | 135 | 0.0 | 11.3 | 0.00 | 0.00 | 0.00 | 37 | 1013.3 |
| 20260508224011 | 20 | 198 | 1.6 | 11.3 | 0.00 | 0.00 | 0.00 | 38 | 1013.3 |
| 20260508223514 | 20 | 146 | 0.0 | 0.0 | 0.00 | 0.00 | 0.00 | 39 | 1013.3 |
| 20260508223016 | 20 | 145 | 0.0 | 1.6 | 0.00 | 0.00 | 0.00 | 38 | 1013.4 |
| 20260508222508 | 20 | 145 | 0.0 | 4.8 | 0.00 | 0.00 | 0.00 | 38 | 1013.3 |
| 20260508222010 | 20 | 146 | 1.6 | 4.8 | 0.00 | 0.00 | 0.00 | 35 | 1013.4 |
| 20260508221504 | 20 | 122 | 0.0 | 4.8 | 0.00 | 0.00 | 0.00 | 35 | 1013.4 |
| 20260508221005 | 20 | 237 | 1.6 | 4.8 | 0.00 | 0.00 | 0.00 | 37 | 1013.6 |
| 20260508220502 | 20 | 244 | 1.6 | 3.2 | 0.00 | 0.00 | 0.00 | 36 | 1013.6 |
| 20260508220105 | 20 | 244 | 0.0 | 4.8 | 0.00 | 0.00 | 0.00 | 38 | 1013.6 |
| 20260508215559 | 20 | 244 | 0.0 | 4.8 | 0.00 | 0.00 | 0.00 | 37 | 1013.6 |
| 20260508215057 | 20 | 169 | 0.0 | 6.4 | 0.00 | 0.00 | 0.00 | 35 | 1013.7 |
| 20260508214556 | 20 | 202 | 3.2 | 6.4 | 0.00 | 0.00 | 0.00 | 34 | 1013.5 |
| 20260508214054 | 20 | 159 | 0.0 | 6.4 | 0.00 | 0.00 | 0.00 | 34 | 1013.6 |
| 20260508213552 | 20 | 178 | 1.6 | 6.4 | 0.00 | 0.00 | 0.00 | 36 | 1013.6 |
| 20260508213051 | 20 | 333 | 0.0 | 6.4 | 0.00 | 0.00 | 0.00 | 36 | 1013.6 |
| 20260508212550 | 20 | 121 | 0.0 | 9.7 | 0.00 | 0.00 | 0.00 | 35 | 1013.6 |
| 20260508212049 | 20 | 136 | 0.0 | 6.4 | 0.00 | 0.00 | 0.00 | 35 | 1013.6 |
| 20260508211547 | 21 | 143 | 1.6 | 8.0 | 0.00 | 0.00 | 0.00 | 34 | 1013.6 |
| 20260508211045 | 21 | 200 | 3.2 | 8.0 | 0.00 | 0.00 | 0.00 | 34 | 1013.5 |
| 20260508210544 | 21 | 236 | 0.0 | 8.0 | 0.00 | 0.00 | 0.00 | 32 | 1013.5 |
| 20260508210043 | 21 | 257 | 3.2 | 8.0 | 0.00 | 0.00 | 0.00 | 33 | 1013.5 |
| 20260508205540 | 21 | 82 | 1.6 | 8.0 | 0.00 | 0.18 | 0.00 | 36 | 1013.6 |
| 20260508205041 | 21 | 49 | 1.6 | 11.3 | 0.00 | 0.18 | 0.00 | 31 | 1013.7 |
| 20260508204547 | 21 | 185 | 3.2 | 11.3 | 0.00 | 0.18 | 0.00 | 31 | 1013.7 |
| 20260508204036 | 22 | 139 | 1.6 | 6.4 | 0.00 | 0.18 | 0.00 | 32 | 1013.7 |
| 20260508203535 | 22 | 232 | 1.6 | 4.8 | 0.00 | 0.18 | 0.00 | 32 | 1013.9 |
| 20260508203041 | 22 | 231 | 0.0 | 4.8 | 0.00 | 0.18 | 0.00 | 32 | 1013.9 |
| 20260508202532 | 22 | 198 | 0.0 | 0.0 | 0.00 | 0.18 | 0.00 | 31 | 1013.9 |
| 20260508202030 | 23 | 230 | 0.0 | 3.2 | 0.00 | 0.18 | 0.00 | 30 | 1013.9 |
| 20260508201529 | 23 | 230 | 0.0 | 4.8 | 0.00 | 0.18 | 0.00 | 30 | 1013.9 |
| 20260508201028 | 23 | 230 | 0.0 | 6.4 | 0.00 | 0.18 | 0.00 | 29 | 1013.9 |
| 20260508200526 | 23 | 130 | 1.6 | 6.4 | 0.00 | 0.18 | 0.00 | 28 | 1014.0 |
| 20260508200028 | 24 | 167 | 3.2 | 6.4 | 0.00 | 0.18 | 0.00 | 29 | 1014.0 |
| 20260508195525 | 23 | 221 | 0.0 | 6.4 | 0.00 | 0.28 | 0.00 | 30 | 1014.0 |
| 20260508195025 | 23 | 191 | 0.0 | 4.8 | 0.00 | 0.28 | 0.00 | 30 | 1014.0 |
| 20260508194520 | 23 | 240 | 0.0 | 4.8 | 0.00 | 0.28 | 0.00 | 30 | 1014.1 |
| 20260508194019 | 23 | 240 | 0.0 | 11.3 | 0.00 | 0.28 | 0.00 | 30 | 1014.2 |
| 20260508193517 | 23 | 243 | 3.2 | 11.3 | 0.00 | 0.28 | 0.00 | 29 | 1014.1 |
| 20260508193016 | 23 | 163 | 1.6 | 11.3 | 0.00 | 0.28 | 0.00 | 28 | 1014.3 |
| 20260508192514 | 23 | 205 | 1.6 | 4.8 | 0.00 | 0.28 | 0.00 | 29 | 1014.5 |
| 20260508192013 | 23 | 200 | 0.0 | 6.4 | 0.00 | 0.28 | 0.00 | 31 | 1014.7 |
| 20260508191514 | 23 | 70 | 1.6 | 6.4 | 0.00 | 0.28 | 0.00 | 30 | 1014.8 |
| 20260508191010 | 23 | 239 | 1.6 | 8.0 | 0.00 | 0.28 | 0.00 | 32 | 1015.1 |
| 20260508190508 | 23 | 221 | 0.0 | 8.0 | 0.00 | 0.28 | 0.00 | 31 | 1015.0 |
| 20260508190007 | 23 | 328 | 1.6 | 4.8 | 0.00 | 0.28 | 0.00 | 31 | 1015.2 |
| 20260508185505 | 23 | 142 | 1.6 | 6.4 | 0.00 | 0.28 | 0.00 | 32 | 1015.5 |
| 20260508185004 | 23 | 145 | 0.0 | 9.7 | 0.00 | 0.28 | 0.00 | 32 | 1015.4 |
| 20260508184506 | 23 | 179 | 3.2 | 9.7 | 0.00 | 0.28 | 0.00 | 28 | 1015.4 |
| 20260508184100 | 23 | 223 | 4.8 | 8.0 | 0.00 | 0.28 | 0.00 | 29 | 1015.4 |
| 20260508183559 | 24 | 158 | 0.0 | 0.0 | 0.00 | 0.28 | 0.00 | 31 | 1015.5 |
| 20260508183103 | 23 | 239 | 0.0 | 4.8 | 0.00 | 0.28 | 0.00 | 33 | 1015.4 |
| 20260508182556 | 23 | 239 | 1.6 | 4.8 | 0.00 | 0.28 | 0.00 | 30 | 1015.5 |
| 20260508182055 | 23 | 169 | 1.6 | 6.4 | 0.00 | 0.28 | 0.00 | 32 | 1015.6 |
| 20260508181556 | 23 | 183 | 1.6 | 11.3 | 0.00 | 0.28 | 0.00 | 32 | 1015.5 |
| 20260508181055 | 23 | 113 | 0.0 | 11.3 | 0.00 | 0.28 | 0.00 | 32 | 1015.6 |
| 20260508180551 | 23 | 224 | 1.6 | 12.9 | 0.00 | 0.28 | 0.00 | 32 | 1015.9 |
| 20260508180049 | 23 | 160 | 3.2 | 12.9 | 0.00 | 0.28 | 0.00 | 31 | 1016.0 |
| 20260508175547 | 23 | 178 | 1.6 | 6.4 | 0.00 | 0.28 | 0.00 | 31 | 1016.0 |
| 20260508175046 | 23 | 181 | 1.6 | 6.4 | 0.00 | 0.28 | 0.00 | 33 | 1016.2 |
| 20260508174553 | 23 | 162 | 1.6 | 6.4 | 0.00 | 0.28 | 0.00 | 33 | 1016.0 |
| 20260508174042 | 23 | 209 | 1.6 | 8.0 | 0.00 | 0.28 | 0.00 | 33 | 1016.1 |
| 20260508173541 | 23 | 141 | 0.0 | 8.0 | 0.00 | 0.28 | 0.00 | 32 | 1016.2 |
| 20260508173040 | 22 | 150 | 1.6 | 8.0 | 0.00 | 0.28 | 0.00 | 29 | 1016.3 |
| 20260508172538 | 22 | 179 | 3.2 | 8.0 | 0.00 | 0.28 | 0.00 | 31 | 1016.4 |
| 20260508172038 | 23 | 152 | 3.2 | 8.0 | 0.00 | 0.28 | 0.00 | 27 | 1016.4 |
| 20260508171537 | 23 | 207 | 0.0 | 4.8 | 0.00 | 0.28 | 0.00 | 32 | 1016.5 |
| 20260508171034 | 23 | 207 | 0.0 | 0.0 | 0.00 | 0.28 | 0.00 | 33 | 1016.6 |
| 20260508170532 | 22 | 209 | 0.0 | 0.0 | 0.00 | 0.28 | 0.00 | 35 | 1016.7 |
| 20260508170035 | 22 | 209 | 0.0 | 0.0 | 0.00 | 0.28 | 0.00 | 29 | 1016.7 |
| 20260508165529 | 22 | 210 | 0.0 | 0.0 | 0.00 | 0.28 | 0.00 | 32 | 1016.8 |
| 20260508165028 | 22 | 210 | 0.0 | 4.8 | 0.00 | 0.28 | 0.00 | 35 | 1016.9 |
| 20260508164527 | 22 | 199 | 0.0 | 4.8 | 0.00 | 0.28 | 0.00 | 33 | 1017.0 |
| 20260508164025 | 22 | 199 | 0.0 | 3.2 | 0.00 | 0.28 | 0.00 | 33 | 1017.1 |
| 20260508163524 | 22 | 146 | 0.0 | 3.2 | 0.00 | 0.28 | 0.00 | 35 | 1017.1 |
| 20260508163022 | 22 | 146 | 0.0 | 3.2 | 0.00 | 0.28 | 0.00 | 34 | 1017.2 |
| 20260508162520 | 21 | 138 | 0.0 | 3.2 | 0.00 | 0.28 | 0.00 | 33 | 1017.2 |
| 20260508162020 | 21 | 140 | 0.0 | 9.7 | 0.00 | 0.28 | 0.00 | 36 | 1017.3 |
| 20260508161519 | 21 | 139 | 0.0 | 9.7 | 0.00 | 0.28 | 0.00 | 31 | 1017.5 |
| 20260508161018 | 21 | 188 | 0.0 | 4.8 | 0.00 | 0.28 | 0.00 | 35 | 1017.5 |
| 20260508160515 | 21 | 235 | 0.0 | 0.0 | 0.00 | 0.28 | 0.00 | 36 | 1017.6 |
| 20260508160016 | 21 | 220 | 0.0 | 0.0 | 0.00 | 0.28 | 0.00 | 37 | 1017.7 |
| 20260508155515 | 20 | 219 | 0.0 | 0.0 | 0.00 | 0.28 | 0.00 | 38 | 1017.6 |
| 20260508155011 | 20 | 219 | 0.0 | 3.2 | 0.00 | 0.28 | 0.00 | 37 | 1017.6 |
| 20260508154510 | 20 | 190 | 0.0 | 4.8 | 0.00 | 0.28 | 0.00 | 37 | 1017.6 |
| 20260508154007 | 20 | 192 | 1.6 | 4.8 | 0.00 | 0.28 | 0.00 | 38 | 1017.7 |
| 20260508153506 | 20 | 53 | 0.0 | 0.0 | 0.00 | 0.28 | 0.00 | 43 | 1017.7 |
| 20260508153004 | 20 | 54 | 0.0 | 0.0 | 0.00 | 0.28 | 0.00 | 45 | 1017.7 |
| 20260508152503 | 19 | 49 | 0.0 | 0.0 | 0.00 | 0.28 | 0.00 | 43 | 1017.7 |
| 20260508152000 | 19 | 55 | 0.0 | 0.0 | 0.00 | 0.28 | 0.00 | 44 | 1017.9 |
| 20260508151604 | 18 | 43 | 0.0 | 0.0 | 0.00 | 0.28 | 0.00 | 41 | 1017.9 |
| 20260508151059 | 18 | 43 | 0.0 | 0.0 | 0.00 | 0.28 | 0.00 | 41 | 1017.9 |
| 20260508150556 | 18 | 44 | 0.0 | 0.0 | 0.00 | 0.28 | 0.00 | 41 | 1018.0 |
| 20260508150054 | 18 | 44 | 0.0 | 1.6 | 0.00 | 0.28 | 0.00 | 45 | 1017.9 |
| 20260508145556 | 18 | 44 | 0.0 | 3.2 | 0.00 | 0.28 | 0.00 | 46 | 1018.1 |
| 20260508145055 | 18 | 44 | 0.0 | 3.2 | 0.00 | 0.28 | 0.00 | 44 | 1017.9 |
| 20260508144552 | 17 | 44 | 0.0 | 4.8 | 0.00 | 0.28 | 0.00 | 42 | 1017.9 |
| 20260508144048 | 17 | 44 | 0.0 | 0.0 | 0.00 | 0.28 | 0.00 | 32 | 1017.8 |
| 20260508143548 | 17 | 40 | 0.0 | 3.2 | 0.00 | 0.28 | 0.00 | 37 | 1017.9 |
| 20260508143055 | 16 | 37 | 0.0 | 3.2 | 0.00 | 0.28 | 0.00 | 25 | 1017.9 |
| 20260508142544 | 16 | 5 | 0.0 | 1.6 | 0.00 | 0.28 | 0.00 | 35 | 1017.9 |
| 20260508142043 | 16 | 350 | 0.0 | 3.2 | 0.00 | 0.28 | 0.00 | 21 | 1017.8 |
| 20260508141541 | 15 | 348 | 0.0 | 3.2 | 0.00 | 0.28 | 0.00 | 2 | 1017.7 |
| 20260508141040 | 15 | 108 | 0.0 | 0.0 | 0.00 | 0.28 | 0.00 | 1 | 1017.7 |
| 20260508140538 | 15 | 108 | 0.0 | 0.0 | 0.00 | 0.28 | 0.00 | 1 | 1017.7 |
| 20260508140040 | 14 | 108 | 0.0 | 4.8 | 0.00 | 0.28 | 0.00 | 1 | 1017.8 |
| 20260508135538 | 13 | 108 | 0.0 | 4.8 | 0.00 | 0.28 | 0.00 | 1 | 1017.7 |
| 20260508135035 | 13 | 107 | 0.0 | 3.2 | 0.00 | 0.28 | 0.00 | 1 | 1017.8 |
| 20260508134533 | 13 | 107 | 0.0 | 3.2 | 0.00 | 0.28 | 0.00 | 1 | 1017.9 |
| 20260508134030 | 12 | 102 | 0.0 | 1.6 | 0.00 | 0.28 | 0.00 | 1 | 1018.1 |
| 20260508133529 | 12 | 102 | 0.0 | 3.2 | 0.00 | 0.28 | 0.00 | 1 | 1018.0 |
| 20260508133028 | 12 | 121 | 1.6 | 3.2 | 0.00 | 0.28 | 0.00 | 1 | 1017.9 |
| 20260508132529 | 12 | 119 | 0.0 | 3.2 | 0.00 | 0.28 | 0.00 | 1 | 1017.9 |
| 20260508132027 | 11 | 96 | 0.0 | 3.2 | 0.00 | 0.28 | 0.00 | 1 | 1018.0 |
| 20260508131523 | 11 | 113 | 0.0 | 4.8 | 0.00 | 0.28 | 0.00 | 1 | 1018.0 |